Terminal Aerodrome Forecast
Issued by NWS Billings, MT

Home | Current Version | Previous Version | Text Only | Print | Product List | Glossary Off
Versions: 1 2 3 4 5 6 7 8 9 10 11 12 13 14 15 16 17 18 19 20 21 22 23 24

153
FTUS45 KBYZ 092323
TAFMLS
TAF
KMLS 092323Z 1000/1024 30011KT P6SM SCT080
     FM100200 25006KT P6SM FEW200
     FM101700 32013G22KT P6SM FEW200=

USA.gov is the U.S. government's official web portal to all federal, state and local government web resources and services.